Time;durP1;ratioP1;P1;durP2;ratioP2;P2;SDS_P1;SDS_P2;PMS_P1;PMS_P2;Temp;Humidity;BMP_temperature;BMP_pressure;BME280_temperature;BME280_humidity;BME280_pressure;Samples;Min_cycle;Max_cycle;Signal;HPM_P1;HPM_P2
2021/03/23 00:00:24;;;;;;;2.80;1.67;;;;;;;6.18;100.00;101710.53;4993422;28;20249;-70
2021/03/23 00:03:01;;;;;;;3.87;1.83;;;;;;;6.25;100.00;101703.22;4976969;28;20295;-69
2021/03/23 00:05:29;;;;;;;6.43;2.20;;;;;;;6.47;100.00;101704.50;4977106;28;20244;-69
2021/03/23 00:07:55;;;;;;;4.13;2.10;;;;;;;6.33;100.00;101711.84;4993396;28;20651;-69
2021/03/23 00:10:23;;;;;;;6.10;2.27;;;;;;;6.27;100.00;101717.31;4992757;28;20278;-69
2021/03/23 00:12:48;;;;;;;3.87;2.17;;;;;;;6.12;100.00;101719.50;4996436;28;20666;-69
2021/03/23 00:15:20;;;;;;;3.50;1.97;;;;;;;6.46;100.00;101716.34;5004330;28;20287;-71
2021/03/23 00:17:46;;;;;;;4.53;2.87;;;;;;;6.48;100.00;101722.34;4997873;28;20693;-69
2021/03/23 00:20:15;;;;;;;5.47;2.13;;;;;;;6.10;100.00;101726.97;4996212;28;20212;-69
2021/03/23 00:22:43;;;;;;;4.40;2.53;;;;;;;6.24;100.00;101723.13;5012907;28;20641;-68
2021/03/23 00:25:09;;;;;;;3.73;2.20;;;;;;;6.22;100.00;101714.44;5030952;28;20641;-69
2021/03/23 00:27:35;;;;;;;8.13;2.50;;;;;;;6.38;100.00;101716.63;5017459;28;20181;-70
2021/03/23 00:30:01;;;;;;;3.93;2.43;;;;;;;6.55;100.00;101713.97;4997780;28;20561;-69
2021/03/23 00:32:27;;;;;;;4.43;2.40;;;;;;;6.37;100.00;101712.25;4998647;28;20220;-70
2021/03/23 00:34:52;;;;;;;5.13;2.13;;;;;;;6.21;100.00;101720.91;4998515;28;20635;-69
2021/03/23 00:37:18;;;;;;;2.80;1.97;;;;;;;6.40;100.00;101722.63;4964419;28;20231;-71
2021/03/23 00:39:43;;;;;;;5.10;2.13;;;;;;;6.42;100.00;101718.66;4977954;28;20215;-71
2021/03/23 00:42:13;;;;;;;2.73;1.90;;;;;;;6.10;100.00;101710.81;5009238;28;20243;-70
2021/03/23 00:44:39;;;;;;;3.63;2.10;;;;;;;6.35;100.00;101719.75;5004496;28;20326;-69
2021/03/23 00:47:05;;;;;;;2.90;1.60;;;;;;;6.32;100.00;101720.19;4996207;28;20223;-68
2021/03/23 00:49:30;;;;;;;4.77;1.90;;;;;;;6.37;100.00;101706.84;5013110;28;20617;-68
2021/03/23 00:51:56;;;;;;;3.60;1.50;;;;;;;6.33;100.00;101700.25;5029123;28;20266;-70
2021/03/23 00:54:22;;;;;;;3.17;1.73;;;;;;;6.01;100.00;101712.09;4996492;28;20593;-70
2021/03/23 00:56:47;;;;;;;3.37;1.83;;;;;;;6.24;100.00;101710.47;5003382;28;20220;-71
2021/03/23 00:59:13;;;;;;;2.30;1.60;;;;;;;6.16;100.00;101709.94;5009159;28;20243;-72
2021/03/23 01:01:41;;;;;;;4.07;1.70;;;;;;;6.14;100.00;101712.00;5009459;28;20317;-70
2021/03/23 01:04:06;;;;;;;4.27;2.00;;;;;;;6.14;100.00;101703.94;4993041;28;20278;-69
2021/03/23 01:06:33;;;;;;;3.53;1.47;;;;;;;6.15;100.00;101702.88;5009561;28;20225;-71
2021/03/23 01:08:58;;;;;;;2.50;1.40;;;;;;;6.08;100.00;101701.25;4976783;28;20958;-70
2021/03/23 01:11:24;;;;;;;3.53;1.50;;;;;;;6.20;100.00;101703.03;4991931;28;20224;-70
2021/03/23 01:13:52;;;;;;;3.67;1.60;;;;;;;6.21;100.00;101692.03;5016655;28;20181;-69
2021/03/23 01:16:23;;;;;;;2.67;1.60;;;;;;;6.22;100.00;101703.66;5008569;28;20235;-71
2021/03/23 01:18:50;;;;;;;2.60;1.30;;;;;;;6.03;100.00;101701.94;5029108;28;20630;-69
2021/03/23 01:21:18;;;;;;;3.23;1.47;;;;;;;6.41;100.00;101702.66;5029260;28;20227;-71
2021/03/23 01:23:44;;;;;;;2.60;1.43;;;;;;;6.00;100.00;101699.66;5011924;28;20188;-69
2021/03/23 01:26:09;;;;;;;4.23;1.53;;;;;;;5.60;100.00;101696.53;5023819;28;20702;-69
2021/03/23 01:28:37;;;;;;;4.30;1.50;;;;;;;5.77;100.00;101691.31;4976119;28;20235;-70
2021/03/23 01:31:05;;;;;;;2.57;1.40;;;;;;;6.00;100.00;101688.88;5008195;28;20271;-70
2021/03/23 01:33:31;;;;;;;4.10;1.60;;;;;;;5.93;100.00;101688.06;4960087;28;20188;-72
2021/03/23 01:35:56;;;;;;;2.47;1.60;;;;;;;5.96;100.00;101686.84;4992019;28;20312;-67
2021/03/23 01:38:22;;;;;;;4.10;2.00;;;;;;;6.07;100.00;101681.56;4992579;28;20268;-71
2021/03/23 01:40:48;;;;;;;3.10;1.70;;;;;;;5.96;100.00;101687.66;4975606;28;20603;-71
2021/03/23 01:43:25;;;;;;;4.70;1.67;;;;;;;5.98;100.00;101673.97;4998575;28;20196;-71
2021/03/23 01:45:56;;;;;;;4.20;1.60;;;;;;;5.95;100.00;101685.16;5015100;28;20211;-70
2021/03/23 01:48:32;;;;;;;4.60;1.90;;;;;;;5.63;100.00;101688.84;4996339;28;20192;-71
2021/03/23 01:51:02;;;;;;;4.00;1.87;;;;;;;5.68;100.00;101689.03;4995305;28;20228;-70
2021/03/23 01:53:36;;;;;;;3.83;1.73;;;;;;;5.85;100.00;101685.66;4995323;28;20203;-70
2021/03/23 01:56:06;;;;;;;5.63;2.00;;;;;;;5.61;100.00;101684.72;5026304;28;20286;-71
2021/03/23 01:58:31;;;;;;;5.20;1.83;;;;;;;5.81;100.00;101689.81;4992549;28;20200;-72
2021/03/23 02:00:57;;;;;;;5.13;2.10;;;;;;;5.81;100.00;101681.75;4974862;28;20760;-70
2021/03/23 02:03:22;;;;;;;3.80;1.80;;;;;;;5.77;100.00;101680.53;4975101;28;20184;-70
2021/03/23 02:05:58;;;;;;;4.73;2.00;;;;;;;5.66;100.00;101680.34;4991843;28;20225;-70
2021/03/23 02:08:23;;;;;;;2.73;1.83;;;;;;;5.73;100.00;101683.03;5008532;28;20193;-70
2021/03/23 02:10:56;;;;;;;5.17;1.80;;;;;;;5.86;100.00;101678.38;4975886;28;20232;-71
2021/03/23 02:13:24;;;;;;;5.63;1.70;;;;;;;6.09;100.00;101675.97;4966933;28;20624;-70
2021/03/23 02:15:52;;;;;;;3.10;1.97;;;;;;;6.06;100.00;101671.81;5004238;28;20708;-70
2021/03/23 02:18:25;;;;;;;4.70;2.33;;;;;;;5.82;100.00;101669.94;5028177;28;20238;-71
2021/03/23 02:21:03;;;;;;;7.03;2.30;;;;;;;5.68;100.00;101672.03;5010918;28;20228;-69
2021/03/23 02:23:31;;;;;;;6.37;1.90;;;;;;;5.78;100.00;101674.06;5027187;28;20192;-70
2021/03/23 02:26:00;;;;;;;4.13;1.83;;;;;;;5.90;100.00;101672.34;4992917;28;20239;-70
2021/03/23 02:28:31;;;;;;;3.50;1.93;;;;;;;5.66;100.00;101668.72;5009394;28;20803;-71
2021/03/23 02:30:56;;;;;;;4.10;1.87;;;;;;;5.93;100.00;101676.47;5007580;28;20229;-71
2021/03/23 02:33:22;;;;;;;4.60;1.80;;;;;;;5.83;100.00;101671.56;4994243;28;20189;-68
2021/03/23 02:35:48;;;;;;;4.33;1.90;;;;;;;5.77;100.00;101677.00;4995123;28;20228;-69
2021/03/23 02:38:14;;;;;;;3.47;1.90;;;;;;;5.96;100.00;101674.16;4979154;28;20185;-69
2021/03/23 02:40:41;;;;;;;4.60;2.00;;;;;;;5.85;100.00;101677.56;5006115;28;20242;-68
2021/03/23 02:43:11;;;;;;;2.80;1.73;;;;;;;5.93;100.00;101682.69;4997533;28;20196;-71
2021/03/23 02:45:41;;;;;;;7.07;1.77;;;;;;;5.98;100.00;101685.56;4991222;28;20239;-70
2021/03/23 02:48:10;;;;;;;2.57;1.70;;;;;;;5.88;100.00;101684.41;5015860;28;20259;-69
2021/03/23 02:50:38;;;;;;;4.50;1.97;;;;;;;5.61;100.00;101684.72;4997771;28;20224;-70
2021/03/23 02:53:03;;;;;;;3.73;2.00;;;;;;;5.91;100.00;101682.06;5030391;28;20235;-70
2021/03/23 02:55:29;;;;;;;3.63;1.70;;;;;;;5.94;100.00;101681.66;5030672;28;20219;-70
2021/03/23 02:57:54;;;;;;;3.97;1.80;;;;;;;5.91;100.00;101683.94;4996237;28;20188;-69
2021/03/23 03:00:20;;;;;;;4.03;1.93;;;;;;;6.02;100.00;101685.97;4978120;28;20211;-71
2021/03/23 03:02:48;;;;;;;2.90;1.73;;;;;;;5.94;100.00;101688.94;5010663;28;20189;-69
2021/03/23 03:05:14;;;;;;;7.83;1.70;;;;;;;6.04;100.00;101689.25;5011967;28;20258;-69
2021/03/23 03:07:39;;;;;;;6.60;2.10;;;;;;;5.99;100.00;101687.22;4994793;28;20651;-71
2021/03/23 03:10:06;;;;;;;2.60;1.70;;;;;;;5.94;100.00;101686.22;5010940;28;20215;-71
2021/03/23 03:12:31;;;;;;;4.00;1.70;;;;;;;6.05;100.00;101680.97;5011990;28;20221;-71
2021/03/23 03:14:57;;;;;;;4.60;1.70;;;;;;;5.89;100.00;101697.66;4989502;28;20199;-70
2021/03/23 03:17:23;;;;;;;3.67;1.93;;;;;;;6.05;100.00;101690.94;5031513;28;20273;-69
2021/03/23 03:19:48;;;;;;;3.90;1.70;;;;;;;5.98;100.00;101688.25;5014299;28;20654;-72
2021/03/23 03:22:16;;;;;;;2.67;1.60;;;;;;;6.09;100.00;101682.16;5029444;28;20235;-68
2021/03/23 03:24:42;;;;;;;7.67;2.10;;;;;;;6.00;100.00;101683.47;5014827;28;20193;-69
2021/03/23 03:27:08;;;;;;;4.53;2.17;;;;;;;6.20;100.00;101684.16;5018639;28;20262;-71
2021/03/23 03:29:33;;;;;;;5.50;1.97;;;;;;;6.14;100.00;101682.34;4994479;28;20185;-70
2021/03/23 03:31:59;;;;;;;3.70;2.10;;;;;;;6.10;100.00;101691.94;4993006;28;20236;-71
2021/03/23 03:34:27;;;;;;;4.30;2.10;;;;;;;5.89;100.00;101683.34;5010619;28;20234;-70
2021/03/23 03:36:55;;;;;;;4.00;2.10;;;;;;;6.08;100.00;101685.94;4994307;28;20274;-70
2021/03/23 03:39:23;;;;;;;2.97;2.30;;;;;;;6.19;100.00;101682.50;4995021;28;20279;-72
2021/03/23 03:41:51;;;;;;;5.37;2.53;;;;;;;5.93;100.00;101690.78;5009379;28;20242;-70
2021/03/23 03:44:19;;;;;;;3.80;2.47;;;;;;;6.10;100.00;101677.59;5001281;28;20204;-68
2021/03/23 03:46:45;;;;;;;4.00;2.37;;;;;;;6.24;100.00;101679.97;4990603;28;20225;-71
2021/03/23 03:49:10;;;;;;;5.10;2.50;;;;;;;6.18;100.00;101686.25;4991006;28;20197;-68
2021/03/23 03:51:40;;;;;;;7.70;5.00;;;;;;;6.06;100.00;101674.50;4990908;28;20253;-70
2021/03/23 03:54:06;;;;;;;3.80;2.50;;;;;;;6.22;100.00;101676.69;4975010;28;20189;-70
2021/03/23 03:56:31;;;;;;;4.73;2.70;;;;;;;6.09;100.00;101682.16;4996597;28;20232;-69
2021/03/23 03:58:57;;;;;;;5.23;3.20;;;;;;;6.07;100.00;101683.44;4994075;28;20549;-71
2021/03/23 04:01:28;;;;;;;3.90;2.77;;;;;;;6.02;100.00;101686.78;4993010;28;20237;-71
2021/03/23 04:03:53;;;;;;;5.97;3.07;;;;;;;6.22;100.00;101693.69;4993641;28;20276;-70
2021/03/23 04:06:22;;;;;;;4.07;2.60;;;;;;;6.13;100.00;101687.97;4977273;28;20229;-68
2021/03/23 04:08:49;;;;;;;3.70;2.87;;;;;;;6.11;100.00;101690.06;5009679;28;20208;-70
2021/03/23 04:11:15;;;;;;;4.20;2.93;;;;;;;6.09;100.00;101687.56;5009172;28;20666;-71
2021/03/23 04:13:45;;;;;;;4.30;2.80;;;;;;;6.13;100.00;101685.25;4984539;28;20181;-70
2021/03/23 04:16:11;;;;;;;4.50;3.40;;;;;;;6.26;100.00;101683.28;4971163;28;20275;-70
2021/03/23 04:18:36;;;;;;;4.23;3.30;;;;;;;6.23;100.00;101672.94;4993045;28;20349;-68
2021/03/23 04:21:03;;;;;;;4.03;3.13;;;;;;;6.26;100.00;101678.75;4976765;28;20360;-70
2021/03/23 04:23:34;;;;;;;4.93;3.40;;;;;;;6.12;100.00;101676.34;5008779;28;20181;-70
2021/03/23 04:26:00;;;;;;;3.60;3.30;;;;;;;6.05;100.00;101683.66;5008967;28;20304;-70
2021/03/23 04:28:28;;;;;;;6.50;3.73;;;;;;;6.04;100.00;101683.88;4993598;28;20666;-69
2021/03/23 04:30:54;;;;;;;5.47;3.27;;;;;;;6.04;100.00;101690.06;5008229;28;20224;-69
2021/03/23 04:33:23;;;;;;;4.57;3.60;;;;;;;6.09;100.00;101684.88;5008556;28;20308;-70
2021/03/23 04:35:56;;;;;;;5.70;3.47;;;;;;;6.03;100.00;101691.13;4992912;28;20232;-69
2021/03/23 04:38:30;;;;;;;6.43;3.73;;;;;;;6.02;100.00;101700.25;4978455;28;20567;-69
2021/03/23 04:41:01;;;;;;;7.07;3.77;;;;;;;6.24;100.00;101686.19;4993952;28;20224;-69
2021/03/23 04:43:32;;;;;;;5.03;3.80;;;;;;;6.12;100.00;101695.22;4992578;28;20547;-69
2021/03/23 04:45:58;;;;;;;6.50;4.50;;;;;;;6.20;100.00;101700.34;5022332;28;20220;-69
2021/03/23 04:48:24;;;;;;;6.67;3.27;;;;;;;6.27;100.00;101701.13;5016356;28;20603;-70
2021/03/23 04:50:49;;;;;;;6.90;3.43;;;;;;;6.14;100.00;101701.22;4988564;28;20220;-70
2021/03/23 04:53:26;;;;;;;4.63;3.70;;;;;;;6.14;100.00;101703.94;4997576;28;20290;-70
2021/03/23 04:55:54;;;;;;;7.30;3.60;;;;;;;6.18;100.00;101703.25;5000527;28;20231;-71
2021/03/23 04:58:21;;;;;;;5.53;3.70;;;;;;;6.25;100.00;101708.63;5002905;28;20667;-70
2021/03/23 05:00:47;;;;;;;8.00;4.10;;;;;;;6.13;100.00;101710.34;4991901;28;20224;-73
2021/03/23 05:03:14;;;;;;;7.43;3.73;;;;;;;6.10;100.00;101704.56;4987279;28;20185;-70
2021/03/23 05:05:42;;;;;;;5.60;3.70;;;;;;;6.14;100.00;101701.22;4959900;28;20216;-70
2021/03/23 05:08:08;;;;;;;7.90;3.70;;;;;;;6.17;100.00;101706.16;5009119;28;20689;-70
2021/03/23 05:10:34;;;;;;;4.67;3.50;;;;;;;6.23;100.00;101706.13;5007956;28;20767;-70
2021/03/23 05:13:00;;;;;;;5.17;3.43;;;;;;;6.18;100.00;101713.22;4997502;28;20184;-69
2021/03/23 05:15:28;;;;;;;7.40;5.53;;;;;;;6.06;100.00;101709.56;4987327;28;20589;-70
2021/03/23 05:17:56;;;;;;;6.73;3.70;;;;;;;6.08;100.00;101707.50;5028889;28;20204;-70
2021/03/23 05:20:21;;;;;;;6.37;4.00;;;;;;;6.06;100.00;101704.16;5027557;28;20570;-71
2021/03/23 05:22:47;;;;;;;4.23;3.70;;;;;;;6.12;100.00;101706.03;4995213;28;20769;-70
2021/03/23 05:25:13;;;;;;;6.90;3.60;;;;;;;6.17;100.00;101706.16;5028045;28;20263;-70
2021/03/23 05:27:41;;;;;;;6.57;3.60;;;;;;;5.94;100.00;101700.53;4996921;28;20184;-69
2021/03/23 05:30:07;;;;;;;6.23;3.80;;;;;;;6.12;100.00;101697.94;5008705;28;20213;-69
2021/03/23 05:32:35;;;;;;;6.27;4.60;;;;;;;6.07;100.00;101700.44;4992561;28;20181;-70
2021/03/23 05:35:02;;;;;;;6.30;3.50;;;;;;;6.34;100.00;101696.53;5009779;28;20196;-70
2021/03/23 05:37:33;;;;;;;60.60;40.03;;;;;;;6.51;100.00;101701.94;5006506;28;20792;-71
2021/03/23 05:39:58;;;;;;;7.07;5.60;;;;;;;6.23;100.00;101705.31;4989817;28;20633;-70
2021/03/23 05:42:39;;;;;;;5.73;3.40;;;;;;;6.26;100.00;101696.78;4992791;28;20257;-70
2021/03/23 05:45:13;;;;;;;4.70;3.50;;;;;;;6.42;100.00;101694.34;5004538;28;20192;-69
2021/03/23 05:47:42;;;;;;;3.87;3.47;;;;;;;6.17;100.00;101687.28;4997815;28;20255;-71
2021/03/23 05:50:07;;;;;;;5.27;3.30;;;;;;;6.26;100.00;101684.13;4994954;28;20212;-70
2021/03/23 05:52:43;;;;;;;4.00;3.50;;;;;;;6.24;100.00;101696.16;5028876;28;20189;-73
2021/03/23 05:55:38;;;;;;;5.70;3.77;;;;;;;6.36;100.00;101683.63;5013453;28;20254;-70
2021/03/23 05:58:03;;;;;;;7.40;3.77;;;;;;;6.20;100.00;101694.97;5001891;28;20666;-71
2021/03/23 06:00:38;;;;;;;6.30;3.63;;;;;;;6.15;100.00;101684.84;5017969;28;20240;-70
2021/03/23 06:03:23;;;;;;;6.23;3.60;;;;;;;6.28;100.00;101686.59;5016854;28;20184;-70
2021/03/23 06:05:56;;;;;;;4.13;3.40;;;;;;;6.44;100.00;101691.44;4998346;28;20233;-71
2021/03/23 06:08:26;;;;;;;6.80;3.83;;;;;;;6.12;100.00;101691.69;4968879;28;20185;-70
2021/03/23 06:11:13;;;;;;;5.70;3.67;;;;;;;6.27;100.00;101706.53;4963416;28;20233;-69
2021/03/23 06:13:49;;;;;;;5.13;4.07;;;;;;;6.38;100.00;101698.53;5013254;28;20188;-70
2021/03/23 06:16:45;;;;;;;5.13;3.80;;;;;;;6.38;100.00;101695.84;4989941;28;20213;-69
2021/03/23 06:19:23;;;;;;;5.73;4.00;;;;;;;6.31;100.00;101696.94;4992012;28;20256;-71
2021/03/23 06:21:56;;;;;;;6.03;4.03;;;;;;;6.41;100.00;101700.81;4994054;28;20261;-70
2021/03/23 06:24:24;;;;;;;6.33;3.90;;;;;;;6.33;100.00;101701.06;4977088;28;20190;-70
2021/03/23 06:27:08;;;;;;;5.03;3.90;;;;;;;6.19;100.00;101698.69;4979052;28;20698;-68
2021/03/23 06:29:46;;;;;;;8.83;6.80;;;;;;;6.29;100.00;101690.94;4982306;28;20192;-73
2021/03/23 06:32:33;;;;;;;14.00;9.27;;;;;;;6.49;100.00;101697.03;5007855;28;20204;-70
2021/03/23 06:35:01;;;;;;;6.03;3.87;;;;;;;6.60;100.00;101697.13;5011623;28;20247;-71
2021/03/23 06:37:33;;;;;;;4.57;3.30;;;;;;;6.58;100.00;101699.22;4993904;28;20274;-69
2021/03/23 06:39:59;;;;;;;5.90;4.10;;;;;;;6.40;100.00;101709.13;4996116;28;20243;-69
2021/03/23 06:42:32;;;;;;;6.47;4.23;;;;;;;6.33;100.00;101711.84;4978756;28;20661;-69
2021/03/23 06:45:24;;;;;;;6.57;3.63;;;;;;;6.37;100.00;101706.84;5024082;28;20215;-69
2021/03/23 06:47:52;;;;;;;6.07;4.20;;;;;;;6.34;100.00;101701.91;4993803;28;20287;-68
2021/03/23 06:50:32;;;;;;;4.60;4.13;;;;;;;6.51;100.00;101707.34;4975690;28;20213;-69
2021/03/23 06:53:12;;;;;;;6.37;3.67;;;;;;;6.79;100.00;101713.13;4978812;28;20279;-69
2021/03/23 06:55:42;;;;;;;5.10;4.03;;;;;;;6.55;100.00;101715.84;5011069;28;20599;-69
2021/03/23 06:58:23;;;;;;;7.87;3.97;;;;;;;6.79;100.00;101710.41;4995774;28;20189;-70
2021/03/23 07:01:16;;;;;;;7.30;4.00;;;;;;;6.87;100.00;101699.34;4992156;28;20785;-71
2021/03/23 07:03:47;;;;;;;5.33;3.57;;;;;;;7.08;100.00;101691.63;4991205;28;20214;-69
2021/03/23 07:06:29;;;;;;;5.07;3.90;;;;;;;7.25;100.00;101698.09;4991125;28;20217;-70
2021/03/23 07:09:19;;;;;;;6.40;3.80;;;;;;;7.00;100.00;101699.22;4977561;28;20192;-71
2021/03/23 07:11:54;;;;;;;4.80;3.60;;;;;;;7.05;100.00;101702.91;4974273;28;20231;-71
2021/03/23 07:14:22;;;;;;;5.73;3.87;;;;;;;6.89;100.00;101698.06;5017907;28;20197;-69
2021/03/23 07:16:50;;;;;;;5.30;3.70;;;;;;;6.91;100.00;101703.25;4981634;28;20231;-71
2021/03/23 07:19:16;;;;;;;6.30;3.77;;;;;;;6.88;100.00;101701.00;4983020;28;20658;-70
2021/03/23 07:21:47;;;;;;;5.27;4.10;;;;;;;6.98;100.00;101695.91;5031184;28;20235;-70
2021/03/23 07:24:18;;;;;;;5.43;3.97;;;;;;;7.00;100.00;101704.63;4999762;28;20184;-69
2021/03/23 07:27:06;;;;;;;6.87;4.30;;;;;;;7.07;100.00;101699.97;4990645;28;20581;-70
2021/03/23 07:29:36;;;;;;;5.70;3.47;;;;;;;7.12;100.00;101697.41;4980313;28;20177;-71
2021/03/23 07:32:13;;;;;;;5.40;3.93;;;;;;;7.05;100.00;101707.47;5009528;28;20225;-69
2021/03/23 07:34:52;;;;;;;7.70;3.90;;;;;;;7.01;100.00;101711.66;5011088;28;20185;-71
2021/03/23 07:37:38;;;;;;;6.60;4.57;;;;;;;6.88;100.00;101723.41;4993587;28;20238;-70
2021/03/23 07:40:18;;;;;;;6.87;4.30;;;;;;;6.91;100.00;101701.38;4994518;28;20209;-71
2021/03/23 07:42:50;;;;;;;5.70;3.50;;;;;;;7.09;100.00;101708.69;5013247;28;20289;-71
2021/03/23 07:45:28;;;;;;;4.60;3.90;;;;;;;7.24;100.00;101711.84;4989562;28;20192;-71
2021/03/23 07:47:58;;;;;;;4.90;3.80;;;;;;;7.50;100.00;101702.38;4998094;28;20215;-72
2021/03/23 07:50:29;;;;;;;7.27;4.13;;;;;;;7.32;99.88;101698.84;5029746;28;20580;-69
2021/03/23 07:53:00;;;;;;;8.23;4.33;;;;;;;7.55;100.00;101705.22;5030619;28;20176;-70
2021/03/23 07:55:28;;;;;;;6.50;3.83;;;;;;;7.32;99.89;101705.06;5013313;28;20220;-69
2021/03/23 07:58:45;;;;;;;7.60;4.10;;;;;;;7.49;99.51;101700.72;4988433;28;20185;-69
2021/03/23 08:01:29;;;;;;;8.20;4.30;;;;;;;7.23;100.00;101715.59;4923298;29;20242;-70
2021/03/23 08:04:06;;;;;;;6.90;4.20;;;;;;;7.46;99.36;101714.69;4934032;29;20242;-70
2021/03/23 08:06:43;;;;;;;6.93;4.20;;;;;;;7.51;98.27;101719.41;4957457;28;20282;-69
2021/03/23 08:09:11;;;;;;;6.20;4.37;;;;;;;7.40;99.27;101712.88;4963191;28;20177;-70
2021/03/23 08:12:05;;;;;;;7.27;4.37;;;;;;;7.22;100.00;101712.06;5010489;28;20233;-69
2021/03/23 08:14:47;;;;;;;6.33;4.37;;;;;;;7.67;98.26;101725.00;5021171;28;20193;-68
2021/03/23 08:17:53;;;;;;;6.20;4.53;;;;;;;7.59;97.19;101716.41;5030593;28;20284;-69
2021/03/23 08:20:40;;;;;;;6.43;4.17;;;;;;;7.68;96.28;101732.09;5015178;28;20211;-69
2021/03/23 08:23:24;;;;;;;5.87;3.80;;;;;;;7.46;96.56;101721.97;5028556;28;20246;-70
2021/03/23 08:25:55;;;;;;;6.00;4.00;;;;;;;7.46;96.97;101725.50;4995509;28;20215;-71
2021/03/23 08:28:39;;;;;;;8.10;4.60;;;;;;;7.69;95.55;101728.31;4993397;28;20195;-71
2021/03/23 08:31:31;;;;;;;6.30;3.90;;;;;;;7.56;95.36;101733.06;5008591;28;20655;-70
2021/03/23 08:34:00;;;;;;;5.67;3.83;;;;;;;7.79;94.13;101734.84;5008917;28;20630;-70
2021/03/23 08:36:44;;;;;;;10.93;4.60;;;;;;;7.71;93.24;101732.47;5012510;28;20698;-70
2021/03/23 08:39:34;;;;;;;8.77;4.40;;;;;;;7.63;93.88;101733.81;5029630;28;20608;-70
2021/03/23 08:42:18;;;;;;;9.60;4.97;;;;;;;7.72;94.35;101734.09;5027036;28;20224;-69
2021/03/23 08:44:56;;;;;;;8.97;4.93;;;;;;;8.02;92.21;101739.53;5008069;28;20550;-69
2021/03/23 08:47:38;;;;;;;8.67;4.97;;;;;;;7.90;92.83;101736.78;5028906;28;20230;-69
2021/03/23 08:50:28;;;;;;;5.63;4.37;;;;;;;7.79;93.03;101729.44;5012961;28;20233;-69
2021/03/23 08:52:57;;;;;;;7.33;3.97;;;;;;;7.65;93.78;101727.13;5012356;28;20212;-70
2021/03/23 08:55:31;;;;;;;5.60;4.50;;;;;;;7.81;93.54;101729.22;5012522;28;20275;-70
2021/03/23 08:57:59;;;;;;;8.10;4.60;;;;;;;8.08;92.40;101729.44;5012011;28;20216;-69
2021/03/23 09:00:37;;;;;;;6.57;3.87;;;;;;;8.00;92.47;101717.28;4992082;28;20686;-70
2021/03/23 09:03:23;;;;;;;6.77;3.80;;;;;;;8.42;90.57;101726.03;5008334;28;20189;-70
2021/03/23 09:05:51;;;;;;;7.30;4.57;;;;;;;8.55;90.16;101723.13;4993109;28;20257;-69
2021/03/23 09:08:48;;;;;;;6.73;4.23;;;;;;;8.27;88.86;101712.13;5009342;28;20217;-69
2021/03/23 09:11:23;;;;;;;5.73;3.73;;;;;;;8.26;90.05;101723.16;5009559;28;20283;-71
2021/03/23 09:14:15;;;;;;;7.67;4.73;;;;;;;8.54;88.13;101721.50;5001322;28;20741;-71
2021/03/23 09:16:57;;;;;;;9.53;4.70;;;;;;;8.86;86.87;101732.59;4997391;28;20314;-72
2021/03/23 09:19:37;;;;;;;8.33;5.47;;;;;;;8.44;87.70;101732.03;5028718;28;20575;-71
2021/03/23 09:22:13;;;;;;;8.10;4.87;;;;;;;8.40;88.06;101728.16;5010981;28;20274;-71
2021/03/23 09:24:43;;;;;;;9.33;4.73;;;;;;;8.26;88.49;101732.13;5028681;28;20223;-69
2021/03/23 09:27:34;;;;;;;8.17;5.50;;;;;;;8.34;88.43;101726.38;5016645;28;20637;-69
2021/03/23 09:30:00;;;;;;;8.97;5.40;;;;;;;8.52;87.82;101731.72;5008800;28;20227;-70
2021/03/23 09:32:28;;;;;;;8.23;5.43;;;;;;;8.45;86.85;101731.00;5007871;28;20228;-70
2021/03/23 09:35:04;;;;;;;10.13;5.27;;;;;;;8.48;86.99;101719.72;4992586;28;20196;-71
2021/03/23 09:37:37;;;;;;;9.47;5.93;;;;;;;8.45;87.04;101725.59;5008693;28;20244;-71
2021/03/23 09:40:31;;;;;;;10.90;5.90;;;;;;;8.61;87.00;101733.03;5008949;28;20205;-69
2021/03/23 09:42:56;;;;;;;12.43;6.20;;;;;;;8.76;85.79;101728.00;5000790;28;20311;-69
2021/03/23 09:45:32;;;;;;;11.17;6.90;;;;;;;9.10;84.66;101731.53;5025321;28;20827;-72
2021/03/23 09:48:15;;;;;;;11.20;7.10;;;;;;;8.79;84.65;101724.78;5034187;28;20198;-69
2021/03/23 09:50:53;;;;;;;11.20;6.77;;;;;;;8.77;84.80;101740.47;5031968;28;20224;-70
2021/03/23 09:53:22;;;;;;;11.83;7.23;;;;;;;8.84;85.41;101729.31;5033222;28;20207;-69
2021/03/23 09:55:48;;;;;;;9.73;7.10;;;;;;;8.92;85.47;101728.13;5014372;28;20224;-69
2021/03/23 09:58:26;;;;;;;9.93;6.80;;;;;;;8.88;84.77;101725.06;4976750;28;20231;-69
2021/03/23 10:00:52;;;;;;;11.53;6.70;;;;;;;8.75;86.65;101731.75;5008713;28;20279;-68
2021/03/23 10:03:34;;;;;;;10.87;7.13;;;;;;;8.61;86.92;101730.34;4999024;28;20193;-73
2021/03/23 10:06:11;;;;;;;12.57;7.63;;;;;;;8.52;87.52;101737.16;4999787;28;20221;-70
2021/03/23 10:08:36;;;;;;;12.70;7.70;;;;;;;8.57;87.46;101739.94;5001187;28;20275;-70
2021/03/23 10:11:11;;;;;;;12.90;8.00;;;;;;;8.49;88.51;101737.59;4997885;28;20610;-71
2021/03/23 10:13:51;;;;;;;13.23;8.20;;;;;;;8.29;89.11;101739.78;5022973;28;20673;-69
2021/03/23 10:16:32;;;;;;;13.10;8.73;;;;;;;8.54;88.72;101751.28;5013635;28;20219;-69
2021/03/23 10:19:18;;;;;;;11.20;8.47;;;;;;;8.31;88.83;101743.06;5032984;28;20885;-71
2021/03/23 10:21:46;;;;;;;13.47;9.20;;;;;;;8.82;88.37;101754.97;5016015;28;20278;-71
2021/03/23 10:24:18;;;;;;;13.97;9.70;;;;;;;8.55;87.01;101747.50;5016089;28;20192;-70
2021/03/23 10:26:49;;;;;;;13.27;9.73;;;;;;;8.38;89.53;101754.63;4992191;28;20224;-70
2021/03/23 10:29:35;;;;;;;13.00;9.60;;;;;;;8.21;90.58;101767.19;4981565;28;20287;-70
2021/03/23 10:32:16;;;;;;;16.40;11.17;;;;;;;8.27;90.45;101760.84;5030226;28;20224;-69
2021/03/23 10:35:06;;;;;;;13.80;10.27;;;;;;;8.52;90.00;101758.81;5000260;28;20238;-69
2021/03/23 10:37:32;;;;;;;17.93;11.60;;;;;;;8.58;89.10;101763.28;5015891;28;20208;-70
2021/03/23 10:40:01;;;;;;;17.13;11.03;;;;;;;8.53;89.41;101765.84;5016003;28;20201;-70
2021/03/23 10:42:29;;;;;;;16.87;11.60;;;;;;;8.43;90.06;101760.19;5012915;28;20286;-72
2021/03/23 10:45:24;;;;;;;19.33;12.30;;;;;;;8.20;90.88;101757.38;5023254;28;20309;-71
2021/03/23 10:47:59;;;;;;;16.73;12.47;;;;;;;8.22;91.88;101765.28;5031543;28;20239;-71
2021/03/23 10:50:26;;;;;;;19.77;13.67;;;;;;;8.04;92.62;101774.25;5030671;28;20207;-70
2021/03/23 10:53:11;;;;;;;19.57;13.10;;;;;;;8.05;92.32;101762.34;5030133;28;20180;-70
2021/03/23 10:55:41;;;;;;;18.10;13.23;;;;;;;7.96;93.38;101767.50;5015679;28;20270;-70
2021/03/23 10:58:20;;;;;;;19.10;13.27;;;;;;;8.18;93.58;101761.38;4995659;28;20193;-71
2021/03/23 11:00:46;;;;;;;21.47;14.20;;;;;;;8.40;92.12;101766.06;4991148;28;20377;-70
2021/03/23 11:03:18;;;;;;;19.30;13.83;;;;;;;8.47;91.09;101769.50;4975288;28;20181;-72
2021/03/23 11:05:48;;;;;;;21.47;13.80;;;;;;;8.61;90.46;101779.91;4991390;28;20251;-71
2021/03/23 11:08:14;;;;;;;18.07;13.17;;;;;;;8.76;89.27;101771.34;4959777;28;20655;-70
2021/03/23 11:10:42;;;;;;;20.80;14.60;;;;;;;8.83;89.73;101768.28;4991142;28;20321;-69
2021/03/23 11:13:10;;;;;;;20.57;14.53;;;;;;;8.82;90.13;101776.63;4989421;28;20191;-70
2021/03/23 11:15:43;;;;;;;19.63;13.70;;;;;;;8.99;88.46;101772.16;4990333;28;20240;-70
2021/03/23 11:18:32;;;;;;;20.70;14.03;;;;;;;9.12;87.60;101761.94;4999414;28;20212;-69
2021/03/23 11:20:59;;;;;;;18.80;13.90;;;;;;;9.20;87.50;101768.88;5030219;28;20705;-70
2021/03/23 11:23:31;;;;;;;18.83;13.83;;;;;;;9.14;85.32;101759.81;5031262;28;20578;-70
2021/03/23 11:26:03;;;;;;;18.07;13.47;;;;;;;9.10;86.61;101764.06;5012168;28;20261;-71
2021/03/23 11:28:30;;;;;;;18.53;13.93;;;;;;;9.15;86.07;101766.88;4995112;28;20192;-70
2021/03/23 11:30:56;;;;;;;15.83;12.73;;;;;;;8.85;86.85;101766.16;5010491;28;20972;-70
2021/03/23 11:33:21;;;;;;;18.77;13.03;;;;;;;8.52;89.20;101769.63;4994015;28;20200;-70
2021/03/23 11:35:47;;;;;;;17.57;12.73;;;;;;;8.63;88.37;101766.13;5010172;28;20279;-70
2021/03/23 11:38:15;;;;;;;21.10;14.30;;;;;;;8.82;88.90;101764.97;5010627;28;20749;-70
2021/03/23 11:40:41;;;;;;;20.50;15.20;;;;;;;8.97;87.24;101758.03;4993744;28;20299;-70
2021/03/23 11:43:09;;;;;;;19.60;14.10;;;;;;;9.20;85.43;101758.88;4991262;28;20570;-71
2021/03/23 11:45:46;;;;;;;17.50;12.77;;;;;;;9.16;84.56;101757.69;4987828;28;20303;-71